sensor_id;sensor_type;location;lat;lon;timestamp;P1;durP1;ratioP1;P2;durP2;ratioP2
21120;SDS011;12519;43.318;21.898;2023-12-04T00:01:54;8.0;;;7.0;;
21120;SDS011;12519;43.318;21.898;2023-12-04T00:06:30;10.0;;;9.0;;
21120;SDS011;12519;43.318;21.898;2023-12-04T00:11:08;10.0;;;9.0;;
21120;SDS011;12519;43.318;21.898;2023-12-04T00:15:44;13.0;;;11.0;;
21120;SDS011;12519;43.318;21.898;2023-12-04T00:20:21;13.0;;;11.0;;
21120;SDS011;12519;43.318;21.898;2023-12-04T00:24:58;11.0;;;10.0;;
21120;SDS011;12519;43.318;21.898;2023-12-04T00:29:34;11.0;;;10.0;;
21120;SDS011;12519;43.318;21.898;2023-12-04T00:34:10;9.0;;;8.0;;
21120;SDS011;12519;43.318;21.898;2023-12-04T00:38:47;9.0;;;8.0;;
21120;SDS011;12519;43.318;21.898;2023-12-04T00:43:23;9.0;;;8.0;;
21120;SDS011;12519;43.318;21.898;2023-12-04T00:47:59;12.0;;;9.0;;
21120;SDS011;12519;43.318;21.898;2023-12-04T00:52:35;12.0;;;9.0;;
21120;SDS011;12519;43.318;21.898;2023-12-04T00:57:11;14.0;;;10.0;;
21120;SDS011;12519;43.318;21.898;2023-12-04T01:01:48;14.0;;;10.0;;
21120;SDS011;12519;43.318;21.898;2023-12-04T01:06:25;13.0;;;10.0;;
21120;SDS011;12519;43.318;21.898;2023-12-04T01:11:01;13.0;;;10.0;;
21120;SDS011;12519;43.318;21.898;2023-12-04T01:15:38;12.0;;;10.0;;
21120;SDS011;12519;43.318;21.898;2023-12-04T01:20:15;12.0;;;10.0;;
21120;SDS011;12519;43.318;21.898;2023-12-04T01:24:52;11.0;;;10.0;;
21120;SDS011;12519;43.318;21.898;2023-12-04T01:29:28;11.0;;;10.0;;
21120;SDS011;12519;43.318;21.898;2023-12-04T01:34:04;10.0;;;9.0;;
21120;SDS011;12519;43.318;21.898;2023-12-04T01:38:41;10.0;;;9.0;;
21120;SDS011;12519;43.318;21.898;2023-12-04T01:43:17;10.0;;;9.0;;
21120;SDS011;12519;43.318;21.898;2023-12-04T01:47:54;10.0;;;9.0;;
21120;SDS011;12519;43.318;21.898;2023-12-04T01:52:31;10.0;;;9.0;;
21120;SDS011;12519;43.318;21.898;2023-12-04T01:57:10;11.0;;;9.0;;
21120;SDS011;12519;43.318;21.898;2023-12-04T02:01:47;11.0;;;9.0;;
21120;SDS011;12519;43.318;21.898;2023-12-04T02:06:24;10.0;;;8.0;;
21120;SDS011;12519;43.318;21.898;2023-12-04T02:11:00;10.0;;;8.0;;
21120;SDS011;12519;43.318;21.898;2023-12-04T02:15:37;9.0;;;8.0;;
21120;SDS011;12519;43.318;21.898;2023-12-04T02:20:14;9.0;;;8.0;;
21120;SDS011;12519;43.318;21.898;2023-12-04T02:24:52;10.0;;;8.0;;
21120;SDS011;12519;43.318;21.898;2023-12-04T02:29:39;10.0;;;8.0;;
21120;SDS011;12519;43.318;21.898;2023-12-04T02:34:34;11.0;;;9.0;;
21120;SDS011;12519;43.318;21.898;2023-12-04T02:39:17;11.0;;;9.0;;
21120;SDS011;12519;43.318;21.898;2023-12-04T02:43:55;11.0;;;9.0;;
21120;SDS011;12519;43.318;21.898;2023-12-04T02:48:31;11.0;;;9.0;;
21120;SDS011;12519;43.318;21.898;2023-12-04T02:53:08;11.0;;;9.0;;
21120;SDS011;12519;43.318;21.898;2023-12-04T02:57:44;11.0;;;9.0;;
21120;SDS011;12519;43.318;21.898;2023-12-04T03:02:21;11.0;;;9.0;;
21120;SDS011;12519;43.318;21.898;2023-12-04T03:06:57;10.0;;;8.0;;
21120;SDS011;12519;43.318;21.898;2023-12-04T03:11:34;10.0;;;8.0;;
21120;SDS011;12519;43.318;21.898;2023-12-04T03:16:17;8.0;;;6.0;;
21120;SDS011;12519;43.318;21.898;2023-12-04T03:20:54;8.0;;;6.0;;
21120;SDS011;12519;43.318;21.898;2023-12-04T03:25:30;8.0;;;7.0;;
21120;SDS011;12519;43.318;21.898;2023-12-04T03:30:09;8.0;;;7.0;;
21120;SDS011;12519;43.318;21.898;2023-12-04T03:34:46;9.0;;;8.0;;
21120;SDS011;12519;43.318;21.898;2023-12-04T03:39:22;9.0;;;8.0;;
21120;SDS011;12519;43.318;21.898;2023-12-04T03:43:58;9.0;;;8.0;;
21120;SDS011;12519;43.318;21.898;2023-12-04T03:48:35;8.0;;;8.0;;
21120;SDS011;12519;43.318;21.898;2023-12-04T03:53:12;8.0;;;8.0;;
21120;SDS011;12519;43.318;21.898;2023-12-04T03:57:48;8.0;;;8.0;;
21120;SDS011;12519;43.318;21.898;2023-12-04T04:02:24;8.0;;;8.0;;
21120;SDS011;12519;43.318;21.898;2023-12-04T04:07:01;10.0;;;8.0;;
21120;SDS011;12519;43.318;21.898;2023-12-04T04:11:37;10.0;;;8.0;;
21120;SDS011;12519;43.318;21.898;2023-12-04T04:16:15;12.0;;;9.0;;
21120;SDS011;12519;43.318;21.898;2023-12-04T04:20:52;12.0;;;9.0;;
21120;SDS011;12519;43.318;21.898;2023-12-04T04:25:28;10.0;;;8.0;;
21120;SDS011;12519;43.318;21.898;2023-12-04T04:30:07;10.0;;;8.0;;
21120;SDS011;12519;43.318;21.898;2023-12-04T04:34:45;9.0;;;8.0;;
21120;SDS011;12519;43.318;21.898;2023-12-04T04:39:22;9.0;;;8.0;;
21120;SDS011;12519;43.318;21.898;2023-12-04T04:43:58;9.0;;;8.0;;
21120;SDS011;12519;43.318;21.898;2023-12-04T04:48:34;10.0;;;8.0;;
21120;SDS011;12519;43.318;21.898;2023-12-04T04:53:10;10.0;;;8.0;;
21120;SDS011;12519;43.318;21.898;2023-12-04T04:57:46;10.0;;;9.0;;
21120;SDS011;12519;43.318;21.898;2023-12-04T05:02:22;10.0;;;9.0;;
21120;SDS011;12519;43.318;21.898;2023-12-04T05:06:59;10.0;;;8.0;;
21120;SDS011;12519;43.318;21.898;2023-12-04T05:11:35;10.0;;;8.0;;
21120;SDS011;12519;43.318;21.898;2023-12-04T05:16:12;9.0;;;8.0;;
21120;SDS011;12519;43.318;21.898;2023-12-04T05:20:50;9.0;;;8.0;;
21120;SDS011;12519;43.318;21.898;2023-12-04T05:25:27;9.0;;;8.0;;
21120;SDS011;12519;43.318;21.898;2023-12-04T05:30:06;9.0;;;8.0;;
21120;SDS011;12519;43.318;21.898;2023-12-04T05:34:45;9.0;;;8.0;;
21120;SDS011;12519;43.318;21.898;2023-12-04T05:39:22;9.0;;;8.0;;
21120;SDS011;12519;43.318;21.898;2023-12-04T05:43:58;9.0;;;8.0;;
21120;SDS011;12519;43.318;21.898;2023-12-04T05:48:35;10.0;;;8.0;;
21120;SDS011;12519;43.318;21.898;2023-12-04T05:53:11;10.0;;;8.0;;
21120;SDS011;12519;43.318;21.898;2023-12-04T05:57:48;11.0;;;8.0;;
21120;SDS011;12519;43.318;21.898;2023-12-04T06:02:24;11.0;;;8.0;;
21120;SDS011;12519;43.318;21.898;2023-12-04T06:07:00;11.0;;;8.0;;
21120;SDS011;12519;43.318;21.898;2023-12-04T06:11:36;11.0;;;8.0;;
21120;SDS011;12519;43.318;21.898;2023-12-04T06:16:12;11.0;;;9.0;;
21120;SDS011;12519;43.318;21.898;2023-12-04T06:20:48;11.0;;;9.0;;
21120;SDS011;12519;43.318;21.898;2023-12-04T06:25:26;12.0;;;9.0;;
21120;SDS011;12519;43.318;21.898;2023-12-04T06:30:07;12.0;;;9.0;;
21120;SDS011;12519;43.318;21.898;2023-12-04T06:34:47;14.0;;;9.0;;
21120;SDS011;12519;43.318;21.898;2023-12-04T06:39:33;14.0;;;9.0;;
21120;SDS011;12519;43.318;21.898;2023-12-04T06:44:16;14.0;;;9.0;;
21120;SDS011;12519;43.318;21.898;2023-12-04T06:48:59;26.0;;;21.0;;
21120;SDS011;12519;43.318;21.898;2023-12-04T06:53:38;26.0;;;21.0;;
21120;SDS011;12519;43.318;21.898;2023-12-04T06:58:14;39.0;;;33.0;;
21120;SDS011;12519;43.318;21.898;2023-12-04T07:02:50;39.0;;;33.0;;
21120;SDS011;12519;43.318;21.898;2023-12-04T07:07:26;34.0;;;28.0;;
21120;SDS011;12519;43.318;21.898;2023-12-04T07:12:03;34.0;;;28.0;;
21120;SDS011;12519;43.318;21.898;2023-12-04T07:16:41;28.0;;;23.0;;
21120;SDS011;12519;43.318;21.898;2023-12-04T07:21:18;28.0;;;23.0;;
21120;SDS011;12519;43.318;21.898;2023-12-04T07:25:54;33.0;;;27.0;;
21120;SDS011;12519;43.318;21.898;2023-12-04T07:30:30;33.0;;;27.0;;
21120;SDS011;12519;43.318;21.898;2023-12-04T07:35:08;38.0;;;31.0;;
21120;SDS011;12519;43.318;21.898;2023-12-04T07:39:44;38.0;;;31.0;;
21120;SDS011;12519;43.318;21.898;2023-12-04T07:44:20;38.0;;;31.0;;
21120;SDS011;12519;43.318;21.898;2023-12-04T07:48:56;30.0;;;24.0;;
21120;SDS011;12519;43.318;21.898;2023-12-04T07:53:33;30.0;;;24.0;;
21120;SDS011;12519;43.318;21.898;2023-12-04T07:58:09;21.0;;;18.0;;
21120;SDS011;12519;43.318;21.898;2023-12-04T08:02:46;21.0;;;18.0;;
21120;SDS011;12519;43.318;21.898;2023-12-04T08:07:22;33.0;;;26.0;;
21120;SDS011;12519;43.318;21.898;2023-12-04T08:11:59;33.0;;;26.0;;
21120;SDS011;12519;43.318;21.898;2023-12-04T08:16:36;45.0;;;33.0;;
21120;SDS011;12519;43.318;21.898;2023-12-04T08:21:12;45.0;;;33.0;;
21120;SDS011;12519;43.318;21.898;2023-12-04T08:25:49;32.0;;;26.0;;
21120;SDS011;12519;43.318;21.898;2023-12-04T08:30:25;32.0;;;26.0;;
21120;SDS011;12519;43.318;21.898;2023-12-04T08:35:03;20.0;;;18.0;;
21120;SDS011;12519;43.318;21.898;2023-12-04T08:39:41;20.0;;;18.0;;
21120;SDS011;12519;43.318;21.898;2023-12-04T08:44:17;20.0;;;18.0;;
21120;SDS011;12519;43.318;21.898;2023-12-04T08:48:53;26.0;;;23.0;;
21120;SDS011;12519;43.318;21.898;2023-12-04T08:53:29;26.0;;;23.0;;
21120;SDS011;12519;43.318;21.898;2023-12-04T08:58:05;33.0;;;28.0;;
21120;SDS011;12519;43.318;21.898;2023-12-04T09:02:41;33.0;;;28.0;;
21120;SDS011;12519;43.318;21.898;2023-12-04T09:07:18;26.0;;;22.0;;
21120;SDS011;12519;43.318;21.898;2023-12-04T09:11:54;26.0;;;22.0;;
21120;SDS011;12519;43.318;21.898;2023-12-04T09:16:30;19.0;;;15.0;;
21120;SDS011;12519;43.318;21.898;2023-12-04T09:21:07;19.0;;;15.0;;
21120;SDS011;12519;43.318;21.898;2023-12-04T09:25:43;16.0;;;13.0;;
21120;SDS011;12519;43.318;21.898;2023-12-04T09:30:20;16.0;;;13.0;;
21120;SDS011;12519;43.318;21.898;2023-12-04T09:34:56;12.0;;;11.0;;
21120;SDS011;12519;43.318;21.898;2023-12-04T09:39:33;12.0;;;11.0;;
21120;SDS011;12519;43.318;21.898;2023-12-04T09:44:09;12.0;;;11.0;;
21120;SDS011;12519;43.318;21.898;2023-12-04T09:48:47;12.0;;;12.0;;
21120;SDS011;12519;43.318;21.898;2023-12-04T09:53:33;12.0;;;12.0;;
21120;SDS011;12519;43.318;21.898;2023-12-04T09:58:15;13.0;;;12.0;;
21120;SDS011;12519;43.318;21.898;2023-12-04T10:02:56;13.0;;;12.0;;
21120;SDS011;12519;43.318;21.898;2023-12-04T10:07:32;15.0;;;14.0;;
21120;SDS011;12519;43.318;21.898;2023-12-04T10:12:09;15.0;;;14.0;;
21120;SDS011;12519;43.318;21.898;2023-12-04T10:16:48;17.0;;;16.0;;
21120;SDS011;12519;43.318;21.898;2023-12-04T10:21:32;17.0;;;16.0;;
21120;SDS011;12519;43.318;21.898;2023-12-04T10:26:08;15.0;;;14.0;;
21120;SDS011;12519;43.318;21.898;2023-12-04T10:30:53;15.0;;;14.0;;
21120;SDS011;12519;43.318;21.898;2023-12-04T10:35:32;13.0;;;11.0;;
21120;SDS011;12519;43.318;21.898;2023-12-04T10:40:24;13.0;;;11.0;;
21120;SDS011;12519;43.318;21.898;2023-12-04T10:45:07;12.0;;;12.0;;
21120;SDS011;12519;43.318;21.898;2023-12-04T10:49:45;12.0;;;12.0;;
21120;SDS011;12519;43.318;21.898;2023-12-04T10:54:26;12.0;;;12.0;;
21120;SDS011;12519;43.318;21.898;2023-12-04T10:59:15;12.0;;;12.0;;
21120;SDS011;12519;43.318;21.898;2023-12-04T11:04:19;12.0;;;12.0;;
21120;SDS011;12519;43.318;21.898;2023-12-04T11:09:09;14.0;;;12.0;;
21120;SDS011;12519;43.318;21.898;2023-12-04T11:13:56;14.0;;;12.0;;
21120;SDS011;12519;43.318;21.898;2023-12-04T11:19:00;15.0;;;13.0;;
21120;SDS011;12519;43.318;21.898;2023-12-04T11:23:50;15.0;;;13.0;;
21120;SDS011;12519;43.318;21.898;2023-12-04T11:28:30;13.0;;;12.0;;
21120;SDS011;12519;43.318;21.898;2023-12-04T11:33:09;13.0;;;12.0;;
21120;SDS011;12519;43.318;21.898;2023-12-04T11:37:47;11.0;;;10.0;;
21120;SDS011;12519;43.318;21.898;2023-12-04T11:42:25;11.0;;;10.0;;
21120;SDS011;12519;43.318;21.898;2023-12-04T11:47:06;14.0;;;12.0;;
21120;SDS011;12519;43.318;21.898;2023-12-04T11:51:46;14.0;;;12.0;;
21120;SDS011;12519;43.318;21.898;2023-12-04T11:56:22;18.0;;;14.0;;
21120;SDS011;12519;43.318;21.898;2023-12-04T12:00:59;18.0;;;14.0;;
21120;SDS011;12519;43.318;21.898;2023-12-04T12:05:37;16.0;;;14.0;;
21120;SDS011;12519;43.318;21.898;2023-12-04T12:10:15;16.0;;;14.0;;
21120;SDS011;12519;43.318;21.898;2023-12-04T12:14:53;16.0;;;14.0;;
21120;SDS011;12519;43.318;21.898;2023-12-04T12:19:29;15.0;;;13.0;;
21120;SDS011;12519;43.318;21.898;2023-12-04T12:24:06;15.0;;;13.0;;
21120;SDS011;12519;43.318;21.898;2023-12-04T12:28:43;17.0;;;15.0;;
21120;SDS011;12519;43.318;21.898;2023-12-04T12:33:23;17.0;;;15.0;;
21120;SDS011;12519;43.318;21.898;2023-12-04T12:37:59;19.0;;;17.0;;
21120;SDS011;12519;43.318;21.898;2023-12-04T12:42:37;19.0;;;17.0;;
21120;SDS011;12519;43.318;21.898;2023-12-04T12:47:15;18.0;;;15.0;;
21120;SDS011;12519;43.318;21.898;2023-12-04T12:51:54;18.0;;;15.0;;
21120;SDS011;12519;43.318;21.898;2023-12-04T12:56:30;18.0;;;13.0;;
21120;SDS011;12519;43.318;21.898;2023-12-04T13:01:10;18.0;;;13.0;;
21120;SDS011;12519;43.318;21.898;2023-12-04T13:05:48;16.0;;;12.0;;
21120;SDS011;12519;43.318;21.898;2023-12-04T13:10:24;16.0;;;12.0;;
21120;SDS011;12519;43.318;21.898;2023-12-04T13:15:01;16.0;;;12.0;;
21120;SDS011;12519;43.318;21.898;2023-12-04T13:19:40;13.0;;;12.0;;
21120;SDS011;12519;43.318;21.898;2023-12-04T13:24:17;13.0;;;12.0;;
21120;SDS011;12519;43.318;21.898;2023-12-04T13:28:53;16.0;;;12.0;;
21120;SDS011;12519;43.318;21.898;2023-12-04T13:33:30;16.0;;;12.0;;
21120;SDS011;12519;43.318;21.898;2023-12-04T13:38:07;20.0;;;13.0;;
21120;SDS011;12519;43.318;21.898;2023-12-04T13:42:43;20.0;;;13.0;;
21120;SDS011;12519;43.318;21.898;2023-12-04T13:47:19;18.0;;;14.0;;
21120;SDS011;12519;43.318;21.898;2023-12-04T13:51:56;18.0;;;14.0;;
21120;SDS011;12519;43.318;21.898;2023-12-04T13:56:32;16.0;;;15.0;;
21120;SDS011;12519;43.318;21.898;2023-12-04T14:01:10;16.0;;;15.0;;
21120;SDS011;12519;43.318;21.898;2023-12-04T14:05:47;20.0;;;15.0;;
21120;SDS011;12519;43.318;21.898;2023-12-04T14:10:23;20.0;;;15.0;;
21120;SDS011;12519;43.318;21.898;2023-12-04T14:14:59;20.0;;;15.0;;
21120;SDS011;12519;43.318;21.898;2023-12-04T14:19:36;24.0;;;15.0;;
21120;SDS011;12519;43.318;21.898;2023-12-04T14:24:12;24.0;;;15.0;;
21120;SDS011;12519;43.318;21.898;2023-12-04T14:28:48;24.0;;;19.0;;
21120;SDS011;12519;43.318;21.898;2023-12-04T14:33:24;24.0;;;19.0;;
21120;SDS011;12519;43.318;21.898;2023-12-04T14:38:01;25.0;;;23.0;;
21120;SDS011;12519;43.318;21.898;2023-12-04T14:42:37;25.0;;;23.0;;
21120;SDS011;12519;43.318;21.898;2023-12-04T14:47:13;26.0;;;24.0;;
21120;SDS011;12519;43.318;21.898;2023-12-04T14:51:49;26.0;;;24.0;;
21120;SDS011;12519;43.318;21.898;2023-12-04T14:56:26;28.0;;;24.0;;
21120;SDS011;12519;43.318;21.898;2023-12-04T15:01:03;28.0;;;24.0;;
21120;SDS011;12519;43.318;21.898;2023-12-04T15:05:40;44.0;;;34.0;;
21120;SDS011;12519;43.318;21.898;2023-12-04T15:10:16;44.0;;;34.0;;
21120;SDS011;12519;43.318;21.898;2023-12-04T15:14:53;44.0;;;34.0;;
21120;SDS011;12519;43.318;21.898;2023-12-04T15:19:29;60.0;;;44.0;;
21120;SDS011;12519;43.318;21.898;2023-12-04T15:24:06;60.0;;;44.0;;
21120;SDS011;12519;43.318;21.898;2023-12-04T15:28:43;86.0;;;64.0;;
21120;SDS011;12519;43.318;21.898;2023-12-04T15:33:20;86.0;;;64.0;;
21120;SDS011;12519;43.318;21.898;2023-12-04T15:37:56;112.0;;;83.0;;
21120;SDS011;12519;43.318;21.898;2023-12-04T15:42:32;112.0;;;83.0;;
21120;SDS011;12519;43.318;21.898;2023-12-04T15:47:08;104.0;;;80.0;;
21120;SDS011;12519;43.318;21.898;2023-12-04T15:51:44;104.0;;;80.0;;
21120;SDS011;12519;43.318;21.898;2023-12-04T15:56:21;97.0;;;78.0;;
21120;SDS011;12519;43.318;21.898;2023-12-04T16:00:58;97.0;;;78.0;;
21120;SDS011;12519;43.318;21.898;2023-12-04T16:05:34;97.0;;;78.0;;
21120;SDS011;12519;43.318;21.898;2023-12-04T16:10:12;92.0;;;68.0;;
21120;SDS011;12519;43.318;21.898;2023-12-04T16:14:49;92.0;;;68.0;;
21120;SDS011;12519;43.318;21.898;2023-12-04T16:19:25;86.0;;;57.0;;
21120;SDS011;12519;43.318;21.898;2023-12-04T16:24:03;86.0;;;57.0;;
21120;SDS011;12519;43.318;21.898;2023-12-04T16:28:41;74.0;;;50.0;;
21120;SDS011;12519;43.318;21.898;2023-12-04T16:33:17;74.0;;;50.0;;
21120;SDS011;12519;43.318;21.898;2023-12-04T16:37:53;61.0;;;44.0;;
21120;SDS011;12519;43.318;21.898;2023-12-04T16:42:30;61.0;;;44.0;;
21120;SDS011;12519;43.318;21.898;2023-12-04T16:47:06;59.0;;;42.0;;
21120;SDS011;12519;43.318;21.898;2023-12-04T16:51:42;59.0;;;42.0;;
21120;SDS011;12519;43.318;21.898;2023-12-04T16:56:19;57.0;;;41.0;;
21120;SDS011;12519;43.318;21.898;2023-12-04T17:00:55;57.0;;;41.0;;
21120;SDS011;12519;43.318;21.898;2023-12-04T17:05:31;57.0;;;41.0;;
21120;SDS011;12519;43.318;21.898;2023-12-04T17:10:09;58.0;;;43.0;;
21120;SDS011;12519;43.318;21.898;2023-12-04T17:14:45;58.0;;;43.0;;
21120;SDS011;12519;43.318;21.898;2023-12-04T17:19:22;58.0;;;45.0;;
21120;SDS011;12519;43.318;21.898;2023-12-04T17:23:59;58.0;;;45.0;;
21120;SDS011;12519;43.318;21.898;2023-12-04T17:28:35;84.0;;;58.0;;
21120;SDS011;12519;43.318;21.898;2023-12-04T17:33:12;84.0;;;58.0;;
21120;SDS011;12519;43.318;21.898;2023-12-04T17:37:49;109.0;;;72.0;;
21120;SDS011;12519;43.318;21.898;2023-12-04T17:42:25;109.0;;;72.0;;
21120;SDS011;12519;43.318;21.898;2023-12-04T17:47:02;86.0;;;63.0;;
21120;SDS011;12519;43.318;21.898;2023-12-04T17:51:39;86.0;;;63.0;;
21120;SDS011;12519;43.318;21.898;2023-12-04T17:56:15;64.0;;;54.0;;
21120;SDS011;12519;43.318;21.898;2023-12-04T18:00:51;64.0;;;54.0;;
21120;SDS011;12519;43.318;21.898;2023-12-04T18:05:27;64.0;;;54.0;;
21120;SDS011;12519;43.318;21.898;2023-12-04T18:10:07;70.0;;;60.0;;
21120;SDS011;12519;43.318;21.898;2023-12-04T18:14:43;70.0;;;60.0;;
21120;SDS011;12519;43.318;21.898;2023-12-04T18:19:20;77.0;;;66.0;;
21120;SDS011;12519;43.318;21.898;2023-12-04T18:23:56;77.0;;;66.0;;
21120;SDS011;12519;43.318;21.898;2023-12-04T18:28:34;86.0;;;68.0;;
21120;SDS011;12519;43.318;21.898;2023-12-04T18:33:12;86.0;;;68.0;;
21120;SDS011;12519;43.318;21.898;2023-12-04T18:38:04;96.0;;;71.0;;
21120;SDS011;12519;43.318;21.898;2023-12-04T18:42:59;96.0;;;71.0;;
21120;SDS011;12519;43.318;21.898;2023-12-04T18:47:44;77.0;;;62.0;;
21120;SDS011;12519;43.318;21.898;2023-12-04T18:52:40;77.0;;;62.0;;
21120;SDS011;12519;43.318;21.898;2023-12-04T18:57:19;58.0;;;54.0;;
21120;SDS011;12519;43.318;21.898;2023-12-04T19:01:55;58.0;;;54.0;;
21120;SDS011;12519;43.318;21.898;2023-12-04T19:06:31;71.0;;;58.0;;
21120;SDS011;12519;43.318;21.898;2023-12-04T19:11:08;71.0;;;58.0;;
21120;SDS011;12519;43.318;21.898;2023-12-04T19:15:44;71.0;;;58.0;;
21120;SDS011;12519;43.318;21.898;2023-12-04T19:20:20;84.0;;;63.0;;
21120;SDS011;12519;43.318;21.898;2023-12-04T19:24:56;84.0;;;63.0;;
21120;SDS011;12519;43.318;21.898;2023-12-04T19:29:33;80.0;;;60.0;;
21120;SDS011;12519;43.318;21.898;2023-12-04T19:34:09;80.0;;;60.0;;
21120;SDS011;12519;43.318;21.898;2023-12-04T19:38:45;77.0;;;56.0;;
21120;SDS011;12519;43.318;21.898;2023-12-04T19:43:21;77.0;;;56.0;;
21120;SDS011;12519;43.318;21.898;2023-12-04T19:47:57;65.0;;;48.0;;
21120;SDS011;12519;43.318;21.898;2023-12-04T19:52:33;65.0;;;48.0;;
21120;SDS011;12519;43.318;21.898;2023-12-04T19:57:10;53.0;;;41.0;;
21120;SDS011;12519;43.318;21.898;2023-12-04T20:01:47;53.0;;;41.0;;
21120;SDS011;12519;43.318;21.898;2023-12-04T20:06:23;63.0;;;46.0;;
21120;SDS011;12519;43.318;21.898;2023-12-04T20:10:59;63.0;;;46.0;;
21120;SDS011;12519;43.318;21.898;2023-12-04T20:15:36;63.0;;;46.0;;
21120;SDS011;12519;43.318;21.898;2023-12-04T20:20:12;73.0;;;50.0;;
21120;SDS011;12519;43.318;21.898;2023-12-04T20:24:49;73.0;;;50.0;;
21120;SDS011;12519;43.318;21.898;2023-12-04T20:29:25;82.0;;;58.0;;
21120;SDS011;12519;43.318;21.898;2023-12-04T20:34:01;82.0;;;58.0;;
21120;SDS011;12519;43.318;21.898;2023-12-04T20:38:38;92.0;;;67.0;;
21120;SDS011;12519;43.318;21.898;2023-12-04T20:43:14;92.0;;;67.0;;
21120;SDS011;12519;43.318;21.898;2023-12-04T20:47:51;92.0;;;71.0;;
21120;SDS011;12519;43.318;21.898;2023-12-04T20:52:27;92.0;;;71.0;;
21120;SDS011;12519;43.318;21.898;2023-12-04T20:57:03;93.0;;;75.0;;
21120;SDS011;12519;43.318;21.898;2023-12-04T21:01:40;93.0;;;75.0;;
21120;SDS011;12519;43.318;21.898;2023-12-04T21:06:16;93.0;;;75.0;;
21120;SDS011;12519;43.318;21.898;2023-12-04T21:10:52;96.0;;;73.0;;
21120;SDS011;12519;43.318;21.898;2023-12-04T21:15:29;96.0;;;73.0;;
21120;SDS011;12519;43.318;21.898;2023-12-04T21:20:09;100.0;;;71.0;;
21120;SDS011;12519;43.318;21.898;2023-12-04T21:24:48;100.0;;;71.0;;
21120;SDS011;12519;43.318;21.898;2023-12-04T21:29:25;95.0;;;68.0;;
21120;SDS011;12519;43.318;21.898;2023-12-04T21:34:01;95.0;;;68.0;;
21120;SDS011;12519;43.318;21.898;2023-12-04T21:38:38;90.0;;;66.0;;
21120;SDS011;12519;43.318;21.898;2023-12-04T21:43:15;90.0;;;66.0;;
21120;SDS011;12519;43.318;21.898;2023-12-04T21:47:51;87.0;;;63.0;;
21120;SDS011;12519;43.318;21.898;2023-12-04T21:52:28;87.0;;;63.0;;
21120;SDS011;12519;43.318;21.898;2023-12-04T21:57:05;84.0;;;60.0;;
21120;SDS011;12519;43.318;21.898;2023-12-04T22:01:41;84.0;;;60.0;;
21120;SDS011;12519;43.318;21.898;2023-12-04T22:06:18;84.0;;;60.0;;
21120;SDS011;12519;43.318;21.898;2023-12-04T22:10:54;72.0;;;57.0;;
21120;SDS011;12519;43.318;21.898;2023-12-04T22:15:31;72.0;;;57.0;;
21120;SDS011;12519;43.318;21.898;2023-12-04T22:20:08;60.0;;;54.0;;
21120;SDS011;12519;43.318;21.898;2023-12-04T22:24:45;60.0;;;54.0;;
21120;SDS011;12519;43.318;21.898;2023-12-04T22:29:22;74.0;;;58.0;;
21120;SDS011;12519;43.318;21.898;2023-12-04T22:33:58;74.0;;;58.0;;
21120;SDS011;12519;43.318;21.898;2023-12-04T22:38:36;88.0;;;62.0;;
21120;SDS011;12519;43.318;21.898;2023-12-04T22:43:13;88.0;;;62.0;;
21120;SDS011;12519;43.318;21.898;2023-12-04T22:47:49;87.0;;;62.0;;
21120;SDS011;12519;43.318;21.898;2023-12-04T22:52:26;87.0;;;62.0;;
21120;SDS011;12519;43.318;21.898;2023-12-04T22:57:04;86.0;;;62.0;;
21120;SDS011;12519;43.318;21.898;2023-12-04T23:01:41;86.0;;;62.0;;
21120;SDS011;12519;43.318;21.898;2023-12-04T23:06:17;86.0;;;62.0;;
21120;SDS011;12519;43.318;21.898;2023-12-04T23:10:54;78.0;;;62.0;;
21120;SDS011;12519;43.318;21.898;2023-12-04T23:15:30;78.0;;;62.0;;
21120;SDS011;12519;43.318;21.898;2023-12-04T23:20:09;71.0;;;63.0;;
21120;SDS011;12519;43.318;21.898;2023-12-04T23:24:46;71.0;;;63.0;;
21120;SDS011;12519;43.318;21.898;2023-12-04T23:29:23;74.0;;;60.0;;
21120;SDS011;12519;43.318;21.898;2023-12-04T23:33:59;74.0;;;60.0;;
21120;SDS011;12519;43.318;21.898;2023-12-04T23:38:36;76.0;;;57.0;;
21120;SDS011;12519;43.318;21.898;2023-12-04T23:43:12;76.0;;;57.0;;
21120;SDS011;12519;43.318;21.898;2023-12-04T23:47:48;74.0;;;58.0;;
21120;SDS011;12519;43.318;21.898;2023-12-04T23:52:24;74.0;;;58.0;;
21120;SDS011;12519;43.318;21.898;2023-12-04T23:57:01;72.0;;;59.0;;
